Terminal Aerodrome Forecast
Issued by NWS Charleston, WV

Current Version | Previous Version | Text Only | Print | Product List | Glossary Off
Versions: 1 2 3 4 5 6 7 8 9 10 11 12 13 14 15 16 17 18 19 20 21 22 23 24 25

811
FTUS41 KRLX 301730
TAFBKW
TAF
KBKW 301730Z 3018/0118 26009G20KT 4SM -RA SCT020 BKN040
      TEMPO 3018/3022 2SM SHRA BR OVC020
     FM302200 25008KT 4SM -RA BR SCT020 BKN040
      TEMPO 3022/3024 2SM SHRA BR OVC020
     FM010000 26008G16KT P6SM OVC250
     FM010200 28012G24KT P6SM VCSH BKN015
     FM010400 29010G20KT P6SM BKN060
     FM010700 28012G24KT P6SM BKN025
     FM011200 29009G18KT P6SM BKN015=

USA.gov is the U.S. government's official web portal to all federal, state and local government web resources and services.